sensor_id;sensor_type;location;lat;lon;timestamp;pressure;altitude;pressure_sealevel;temperature;humidity
5755;BME280;2902;42.130;24.732;2024-01-30T00:00:24;101693.78;;;4.53;55.42
5755;BME280;2902;42.130;24.732;2024-01-30T00:02:51;101688.94;;;4.34;55.52
5755;BME280;2902;42.130;24.732;2024-01-30T00:05:17;101695.78;;;4.37;56.05
5755;BME280;2902;42.130;24.732;2024-01-30T00:07:46;101690.63;;;4.35;55.94
5755;BME280;2902;42.130;24.732;2024-01-30T00:10:12;101693.25;;;4.35;56.23
5755;BME280;2902;42.130;24.732;2024-01-30T00:12:39;101700.00;;;4.39;55.85
5755;BME280;2902;42.130;24.732;2024-01-30T00:15:06;101695.91;;;4.35;56.15
5755;BME280;2902;42.130;24.732;2024-01-30T00:17:35;101706.03;;;4.02;57.06
5755;BME280;2902;42.130;24.732;2024-01-30T00:20:02;101701.81;;;4.12;56.80
5755;BME280;2902;42.130;24.732;2024-01-30T00:22:30;101699.34;;;4.23;56.21
5755;BME280;2902;42.130;24.732;2024-01-30T00:24:58;101697.25;;;4.28;57.00
5755;BME280;2902;42.130;24.732;2024-01-30T00:27:25;101697.75;;;4.21;56.09
5755;BME280;2902;42.130;24.732;2024-01-30T00:29:52;101697.44;;;4.25;56.38
5755;BME280;2902;42.130;24.732;2024-01-30T00:32:19;101700.59;;;4.30;56.59
5755;BME280;2902;42.130;24.732;2024-01-30T00:34:46;101699.56;;;4.33;56.57
5755;BME280;2902;42.130;24.732;2024-01-30T00:37:13;101699.34;;;4.36;56.81
5755;BME280;2902;42.130;24.732;2024-01-30T00:39:39;101692.22;;;4.38;56.51
5755;BME280;2902;42.130;24.732;2024-01-30T00:42:07;101695.47;;;4.41;56.01
5755;BME280;2902;42.130;24.732;2024-01-30T00:44:35;101702.06;;;4.34;56.42
5755;BME280;2902;42.130;24.732;2024-01-30T00:47:04;101695.13;;;4.33;56.54
5755;BME280;2902;42.130;24.732;2024-01-30T00:49:30;101708.19;;;4.35;56.96
5755;BME280;2902;42.130;24.732;2024-01-30T00:51:57;101695.13;;;4.33;56.56
5755;BME280;2902;42.130;24.732;2024-01-30T00:54:24;101702.31;;;4.31;56.51
5755;BME280;2902;42.130;24.732;2024-01-30T00:56:51;101699.34;;;4.23;56.92
5755;BME280;2902;42.130;24.732;2024-01-30T00:59:19;101697.66;;;4.22;57.25
5755;BME280;2902;42.130;24.732;2024-01-30T01:01:45;101698.59;;;4.21;57.55
5755;BME280;2902;42.130;24.732;2024-01-30T01:04:12;101694.09;;;4.23;57.40
5755;BME280;2902;42.130;24.732;2024-01-30T01:06:39;101702.69;;;4.25;57.04
5755;BME280;2902;42.130;24.732;2024-01-30T01:09:08;101702.59;;;4.14;57.67
5755;BME280;2902;42.130;24.732;2024-01-30T01:11:34;101698.41;;;3.98;57.95
5755;BME280;2902;42.130;24.732;2024-01-30T01:14:01;101698.38;;;3.85;58.47
5755;BME280;2902;42.130;24.732;2024-01-30T01:16:29;101691.66;;;3.81;59.98
5755;BME280;2902;42.130;24.732;2024-01-30T01:18:56;101695.19;;;3.80;60.53
5755;BME280;2902;42.130;24.732;2024-01-30T01:21:23;101690.25;;;3.76;60.63
5755;BME280;2902;42.130;24.732;2024-01-30T01:23:49;101685.91;;;3.75;61.30
5755;BME280;2902;42.130;24.732;2024-01-30T01:26:16;101689.25;;;3.64;61.35
5755;BME280;2902;42.130;24.732;2024-01-30T01:28:43;101677.25;;;3.60;62.94
5755;BME280;2902;42.130;24.732;2024-01-30T01:31:10;101672.38;;;3.54;62.80
5755;BME280;2902;42.130;24.732;2024-01-30T01:33:38;101671.41;;;3.43;62.38
5755;BME280;2902;42.130;24.732;2024-01-30T01:36:05;101677.53;;;3.29;62.14
5755;BME280;2902;42.130;24.732;2024-01-30T01:38:32;101671.53;;;3.13;62.69
5755;BME280;2902;42.130;24.732;2024-01-30T01:40:58;101680.56;;;2.95;63.02
5755;BME280;2902;42.130;24.732;2024-01-30T01:43:25;101676.97;;;2.82;63.28
5755;BME280;2902;42.130;24.732;2024-01-30T01:45:52;101670.16;;;2.66;63.45
5755;BME280;2902;42.130;24.732;2024-01-30T01:48:19;101677.34;;;2.48;63.60
5755;BME280;2902;42.130;24.732;2024-01-30T01:50:47;101672.72;;;2.38;65.17
5755;BME280;2902;42.130;24.732;2024-01-30T01:53:15;101675.44;;;2.22;65.24
5755;BME280;2902;42.130;24.732;2024-01-30T01:55:43;101672.34;;;2.00;66.25
5755;BME280;2902;42.130;24.732;2024-01-30T01:58:10;101667.41;;;1.80;67.27
5755;BME280;2902;42.130;24.732;2024-01-30T02:00:38;101678.91;;;1.78;68.15
5755;BME280;2902;42.130;24.732;2024-01-30T02:03:08;101681.81;;;1.73;68.23
5755;BME280;2902;42.130;24.732;2024-01-30T02:05:36;101682.63;;;1.74;69.88
5755;BME280;2902;42.130;24.732;2024-01-30T02:08:05;101681.44;;;1.79;69.38
5755;BME280;2902;42.130;24.732;2024-01-30T02:10:33;101679.22;;;1.87;69.00
5755;BME280;2902;42.130;24.732;2024-01-30T02:12:59;101682.63;;;1.89;69.78
5755;BME280;2902;42.130;24.732;2024-01-30T02:15:26;101680.56;;;1.94;69.18
5755;BME280;2902;42.130;24.732;2024-01-30T02:17:54;101692.41;;;2.01;68.78
5755;BME280;2902;42.130;24.732;2024-01-30T02:20:22;101682.34;;;1.94;68.56
5755;BME280;2902;42.130;24.732;2024-01-30T02:22:52;101682.47;;;1.77;69.12
5755;BME280;2902;42.130;24.732;2024-01-30T02:25:19;101685.84;;;1.63;69.45
5755;BME280;2902;42.130;24.732;2024-01-30T02:27:45;101687.22;;;1.55;71.23
5755;BME280;2902;42.130;24.732;2024-01-30T02:30:13;101688.06;;;1.55;71.08
5755;BME280;2902;42.130;24.732;2024-01-30T02:32:39;101689.78;;;1.56;70.80
5755;BME280;2902;42.130;24.732;2024-01-30T02:35:06;101698.38;;;1.58;71.47
5755;BME280;2902;42.130;24.732;2024-01-30T02:37:33;101704.28;;;1.62;71.76
5755;BME280;2902;42.130;24.732;2024-01-30T02:40:01;101703.03;;;1.53;72.50
5755;BME280;2902;42.130;24.732;2024-01-30T02:42:28;101691.44;;;1.57;72.53
5755;BME280;2902;42.130;24.732;2024-01-30T02:44:54;101700.81;;;1.61;72.28
5755;BME280;2902;42.130;24.732;2024-01-30T02:47:21;101702.50;;;1.62;72.83
5755;BME280;2902;42.130;24.732;2024-01-30T02:49:48;101701.75;;;1.60;72.41
5755;BME280;2902;42.130;24.732;2024-01-30T02:52:14;101702.91;;;1.70;72.60
5755;BME280;2902;42.130;24.732;2024-01-30T02:54:41;101694.81;;;1.75;71.63
5755;BME280;2902;42.130;24.732;2024-01-30T02:57:09;101704.44;;;1.74;72.09
5755;BME280;2902;42.130;24.732;2024-01-30T02:59:36;101702.91;;;1.70;71.32
5755;BME280;2902;42.130;24.732;2024-01-30T03:02:03;101707.50;;;1.67;71.85
5755;BME280;2902;42.130;24.732;2024-01-30T03:04:29;101714.66;;;1.63;73.03
5755;BME280;2902;42.130;24.732;2024-01-30T03:06:56;101712.91;;;1.64;73.19
5755;BME280;2902;42.130;24.732;2024-01-30T03:09:23;101711.31;;;1.61;72.73
5755;BME280;2902;42.130;24.732;2024-01-30T03:11:49;101714.50;;;1.66;71.97
5755;BME280;2902;42.130;24.732;2024-01-30T03:14:18;101711.53;;;1.72;72.91
5755;BME280;2902;42.130;24.732;2024-01-30T03:16:44;101709.94;;;1.70;72.90
5755;BME280;2902;42.130;24.732;2024-01-30T03:19:11;101712.91;;;1.64;72.78
5755;BME280;2902;42.130;24.732;2024-01-30T03:21:38;101710.72;;;1.56;73.87
5755;BME280;2902;42.130;24.732;2024-01-30T03:24:05;101701.91;;;1.57;73.40
5755;BME280;2902;42.130;24.732;2024-01-30T03:26:31;101700.81;;;1.61;74.15
5755;BME280;2902;42.130;24.732;2024-01-30T03:28:58;101697.19;;;1.64;73.19
5755;BME280;2902;42.130;24.732;2024-01-30T03:31:26;101701.91;;;1.57;73.38
5755;BME280;2902;42.130;24.732;2024-01-30T03:33:53;101696.19;;;1.51;73.42
5755;BME280;2902;42.130;24.732;2024-01-30T03:36:20;101703.69;;;1.41;73.78
5755;BME280;2902;42.130;24.732;2024-01-30T03:38:46;101705.66;;;1.38;74.22
5755;BME280;2902;42.130;24.732;2024-01-30T03:41:13;101705.88;;;1.33;74.37
5755;BME280;2902;42.130;24.732;2024-01-30T03:43:40;101712.81;;;1.19;74.93
5755;BME280;2902;42.130;24.732;2024-01-30T03:46:07;101712.78;;;1.03;75.58
5755;BME280;2902;42.130;24.732;2024-01-30T03:48:35;101711.25;;;0.99;75.49
5755;BME280;2902;42.130;24.732;2024-01-30T03:51:02;101704.06;;;0.87;75.49
5755;BME280;2902;42.130;24.732;2024-01-30T03:53:29;101705.38;;;0.79;76.16
5755;BME280;2902;42.130;24.732;2024-01-30T03:55:56;101694.22;;;0.75;76.85
5755;BME280;2902;42.130;24.732;2024-01-30T03:58:22;101694.09;;;0.78;77.04
5755;BME280;2902;42.130;24.732;2024-01-30T04:00:49;101691.84;;;0.71;76.89
5755;BME280;2902;42.130;24.732;2024-01-30T04:03:16;101698.94;;;0.69;77.27
5755;BME280;2902;42.130;24.732;2024-01-30T04:05:45;101712.09;;;0.67;76.65
5755;BME280;2902;42.130;24.732;2024-01-30T04:08:12;101709.56;;;0.49;77.43
5755;BME280;2902;42.130;24.732;2024-01-30T04:10:39;101713.34;;;0.26;78.71
5755;BME280;2902;42.130;24.732;2024-01-30T04:13:06;101706.66;;;0.21;79.17
5755;BME280;2902;42.130;24.732;2024-01-30T04:15:33;101710.34;;;0.17;79.69
5755;BME280;2902;42.130;24.732;2024-01-30T04:18:00;101701.19;;;0.08;80.03
5755;BME280;2902;42.130;24.732;2024-01-30T04:20:27;101695.97;;;0.08;80.56
5755;BME280;2902;42.130;24.732;2024-01-30T04:22:55;101704.44;;;0.13;80.49
5755;BME280;2902;42.130;24.732;2024-01-30T04:25:22;101698.69;;;0.07;80.65
5755;BME280;2902;42.130;24.732;2024-01-30T04:27:48;101707.13;;;0.12;80.78
5755;BME280;2902;42.130;24.732;2024-01-30T04:30:15;101710.09;;;0.04;81.00
5755;BME280;2902;42.130;24.732;2024-01-30T04:32:43;101705.41;;;-0.07;81.76
5755;BME280;2902;42.130;24.732;2024-01-30T04:35:10;101699.97;;;-0.02;82.06
5755;BME280;2902;42.130;24.732;2024-01-30T04:37:36;101719.03;;;0.00;82.38
5755;BME280;2902;42.130;24.732;2024-01-30T04:40:06;101720.72;;;0.01;82.42
5755;BME280;2902;42.130;24.732;2024-01-30T04:42:33;101717.72;;;0.08;82.57
5755;BME280;2902;42.130;24.732;2024-01-30T04:45:00;101722.56;;;0.16;82.59
5755;BME280;2902;42.130;24.732;2024-01-30T04:47:27;101726.72;;;0.20;82.84
5755;BME280;2902;42.130;24.732;2024-01-30T04:49:55;101722.41;;;0.19;82.38
5755;BME280;2902;42.130;24.732;2024-01-30T04:52:21;101734.13;;;0.29;82.96
5755;BME280;2902;42.130;24.732;2024-01-30T04:54:48;101735.34;;;0.39;82.51
5755;BME280;2902;42.130;24.732;2024-01-30T04:57:16;101733.78;;;0.52;82.14
5755;BME280;2902;42.130;24.732;2024-01-30T04:59:43;101739.19;;;0.66;81.75
5755;BME280;2902;42.130;24.732;2024-01-30T05:02:10;101736.34;;;0.86;81.17
5755;BME280;2902;42.130;24.732;2024-01-30T05:04:36;101734.97;;;0.96;80.03
5755;BME280;2902;42.130;24.732;2024-01-30T05:07:03;101736.78;;;0.94;78.77
5755;BME280;2902;42.130;24.732;2024-01-30T05:09:30;101743.56;;;0.98;78.76
5755;BME280;2902;42.130;24.732;2024-01-30T05:11:57;101736.13;;;0.91;78.86
5755;BME280;2902;42.130;24.732;2024-01-30T05:14:25;101750.00;;;1.08;78.73
5755;BME280;2902;42.130;24.732;2024-01-30T05:16:52;101739.19;;;1.14;78.54
5755;BME280;2902;42.130;24.732;2024-01-30T05:19:19;101751.06;;;1.37;78.43
5755;BME280;2902;42.130;24.732;2024-01-30T05:21:46;101749.72;;;1.45;77.42
5755;BME280;2902;42.130;24.732;2024-01-30T05:24:13;101761.22;;;1.58;76.82
5755;BME280;2902;42.130;24.732;2024-01-30T05:26:40;101760.63;;;1.69;76.47
5755;BME280;2902;42.130;24.732;2024-01-30T05:29:07;101762.22;;;1.71;76.10
5755;BME280;2902;42.130;24.732;2024-01-30T05:31:35;101758.16;;;1.66;75.02
5755;BME280;2902;42.130;24.732;2024-01-30T05:34:02;101757.66;;;1.44;75.53
5755;BME280;2902;42.130;24.732;2024-01-30T05:36:28;101747.00;;;1.31;76.70
5755;BME280;2902;42.130;24.732;2024-01-30T05:38:55;101752.06;;;1.34;77.02
5755;BME280;2902;42.130;24.732;2024-01-30T05:41:22;101746.31;;;1.28;76.65
5755;BME280;2902;42.130;24.732;2024-01-30T05:43:49;101748.38;;;1.38;77.95
5755;BME280;2902;42.130;24.732;2024-01-30T05:46:16;101752.22;;;1.31;76.82
5755;BME280;2902;42.130;24.732;2024-01-30T05:48:44;101756.28;;;1.37;76.92
5755;BME280;2902;42.130;24.732;2024-01-30T05:51:10;101744.66;;;1.42;75.79
5755;BME280;2902;42.130;24.732;2024-01-30T05:53:37;101757.66;;;1.44;75.90
5755;BME280;2902;42.130;24.732;2024-01-30T05:56:05;101754.16;;;1.60;76.30
5755;BME280;2902;42.130;24.732;2024-01-30T05:58:31;101750.75;;;1.58;76.45
5755;BME280;2902;42.130;24.732;2024-01-30T06:00:58;101752.28;;;1.62;76.37
5755;BME280;2902;42.130;24.732;2024-01-30T06:03:25;101726.00;;;1.64;75.40
5755;BME280;2902;42.130;24.732;2024-01-30T06:05:53;101753.44;;;1.88;75.61
5755;BME280;2902;42.130;24.732;2024-01-30T06:08:20;101746.66;;;1.99;74.92
5755;BME280;2902;42.130;24.732;2024-01-30T06:10:46;101756.69;;;2.07;74.36
5755;BME280;2902;42.130;24.732;2024-01-30T06:13:13;101750.03;;;2.17;74.56
5755;BME280;2902;42.130;24.732;2024-01-30T06:15:39;101750.84;;;2.33;74.51
5755;BME280;2902;42.130;24.732;2024-01-30T06:18:06;101756.13;;;2.47;73.51
5755;BME280;2902;42.130;24.732;2024-01-30T06:20:33;101754.81;;;2.54;73.64
5755;BME280;2902;42.130;24.732;2024-01-30T06:23:01;101762.22;;;2.61;72.79
5755;BME280;2902;42.130;24.732;2024-01-30T06:25:28;101753.25;;;2.65;73.56
5755;BME280;2902;42.130;24.732;2024-01-30T06:27:54;101764.91;;;2.75;72.86
5755;BME280;2902;42.130;24.732;2024-01-30T06:30:21;101769.59;;;2.84;72.44
5755;BME280;2902;42.130;24.732;2024-01-30T06:32:48;101772.97;;;2.86;72.51
5755;BME280;2902;42.130;24.732;2024-01-30T06:35:15;101772.97;;;2.86;71.82
5755;BME280;2902;42.130;24.732;2024-01-30T06:37:43;101776.16;;;2.77;71.77
5755;BME280;2902;42.130;24.732;2024-01-30T06:40:12;101764.53;;;2.81;72.08
5755;BME280;2902;42.130;24.732;2024-01-30T06:42:38;101772.78;;;2.89;71.64
5755;BME280;2902;42.130;24.732;2024-01-30T06:45:06;101762.84;;;2.80;72.47
5755;BME280;2902;42.130;24.732;2024-01-30T06:47:33;101769.59;;;2.84;72.40
5755;BME280;2902;42.130;24.732;2024-01-30T06:50:00;101767.16;;;2.81;72.47
5755;BME280;2902;42.130;24.732;2024-01-30T06:52:27;101772.97;;;2.86;73.40
5755;BME280;2902;42.130;24.732;2024-01-30T06:54:54;101769.03;;;2.93;73.07
5755;BME280;2902;42.130;24.732;2024-01-30T06:57:22;101771.59;;;2.95;72.64
5755;BME280;2902;42.130;24.732;2024-01-30T06:59:49;101774.84;;;2.98;72.46
5755;BME280;2902;42.130;24.732;2024-01-30T07:02:15;101772.22;;;2.98;72.77
5755;BME280;2902;42.130;24.732;2024-01-30T07:04:42;101775.81;;;2.97;72.22
5755;BME280;2902;42.130;24.732;2024-01-30T07:07:09;101779.84;;;3.03;72.68
5755;BME280;2902;42.130;24.732;2024-01-30T07:09:38;101774.69;;;3.15;72.93
5755;BME280;2902;42.130;24.732;2024-01-30T07:12:05;101772.81;;;3.17;72.03
5755;BME280;2902;42.130;24.732;2024-01-30T07:14:34;101777.97;;;3.19;72.49
5755;BME280;2902;42.130;24.732;2024-01-30T07:17:00;101781.06;;;3.25;71.88
5755;BME280;2902;42.130;24.732;2024-01-30T07:19:27;101780.50;;;3.34;72.29
5755;BME280;2902;42.130;24.732;2024-01-30T07:21:54;101777.88;;;3.34;72.31
5755;BME280;2902;42.130;24.732;2024-01-30T07:24:21;101782.94;;;3.37;72.32
5755;BME280;2902;42.130;24.732;2024-01-30T07:26:48;101778.53;;;3.38;71.45
5755;BME280;2902;42.130;24.732;2024-01-30T07:29:14;101783.13;;;3.34;71.06
5755;BME280;2902;42.130;24.732;2024-01-30T07:31:42;101786.59;;;3.21;70.50
5755;BME280;2902;42.130;24.732;2024-01-30T07:34:09;101784.25;;;3.16;71.11
5755;BME280;2902;42.130;24.732;2024-01-30T07:36:36;101785.47;;;3.25;70.79
5755;BME280;2902;42.130;24.732;2024-01-30T07:39:03;101791.41;;;3.28;70.77
5755;BME280;2902;42.130;24.732;2024-01-30T07:41:29;101786.31;;;3.25;69.76
5755;BME280;2902;42.130;24.732;2024-01-30T07:43:57;101787.91;;;3.00;69.30
5755;BME280;2902;42.130;24.732;2024-01-30T07:46:23;101795.59;;;3.03;69.26
5755;BME280;2902;42.130;24.732;2024-01-30T07:48:51;101795.59;;;3.03;69.07
5755;BME280;2902;42.130;24.732;2024-01-30T07:51:18;101786.69;;;3.19;69.56
5755;BME280;2902;42.130;24.732;2024-01-30T07:53:51;101789.50;;;3.30;67.83
5755;BME280;2902;42.130;24.732;2024-01-30T07:56:18;101791.59;;;3.25;67.50
5755;BME280;2902;42.130;24.732;2024-01-30T07:58:44;101765.69;;;3.05;67.09
5755;BME280;2902;42.130;24.732;2024-01-30T08:01:11;101789.91;;;3.24;66.63
5755;BME280;2902;42.130;24.732;2024-01-30T08:03:38;101775.06;;;3.09;67.68
5755;BME280;2902;42.130;24.732;2024-01-30T08:06:09;101795.63;;;3.31;67.24
5755;BME280;2902;42.130;24.732;2024-01-30T08:08:35;101794.88;;;3.43;66.50
5755;BME280;2902;42.130;24.732;2024-01-30T08:11:03;101789.88;;;3.52;65.83
5755;BME280;2902;42.130;24.732;2024-01-30T08:13:30;101788.91;;;3.67;65.36
5755;BME280;2902;42.130;24.732;2024-01-30T08:15:57;101796.63;;;3.56;64.19
5755;BME280;2902;42.130;24.732;2024-01-30T08:18:23;101793.09;;;3.29;65.14
5755;BME280;2902;42.130;24.732;2024-01-30T08:20:50;101787.44;;;3.35;64.66
5755;BME280;2902;42.130;24.732;2024-01-30T08:23:18;101781.81;;;3.41;64.70
5755;BME280;2902;42.130;24.732;2024-01-30T08:25:45;101786.59;;;3.63;63.91
5755;BME280;2902;42.130;24.732;2024-01-30T08:28:11;101793.25;;;4.35;67.18
5755;BME280;2902;42.130;24.732;2024-01-30T08:30:38;101798.50;;;4.35;62.19
5755;BME280;2902;42.130;24.732;2024-01-30T08:33:05;101797.19;;;4.28;61.70
5755;BME280;2902;42.130;24.732;2024-01-30T08:35:32;101797.63;;;4.22;61.03
5755;BME280;2902;42.130;24.732;2024-01-30T08:37:59;101796.31;;;4.15;61.79
5755;BME280;2902;42.130;24.732;2024-01-30T08:40:28;101779.13;;;3.83;62.63
5755;BME280;2902;42.130;24.732;2024-01-30T08:42:55;101789.03;;;3.92;62.63
5755;BME280;2902;42.130;24.732;2024-01-30T08:45:21;101790.72;;;3.93;62.33
5755;BME280;2902;42.130;24.732;2024-01-30T08:47:48;101789.03;;;4.06;61.37
5755;BME280;2902;42.130;24.732;2024-01-30T08:50:15;101796.84;;;4.20;60.30
5755;BME280;2902;42.130;24.732;2024-01-30T08:52:42;101795.63;;;4.26;59.31
5755;BME280;2902;42.130;24.732;2024-01-30T08:55:09;101796.47;;;4.26;57.94
5755;BME280;2902;42.130;24.732;2024-01-30T08:57:37;101804.75;;;4.20;58.46
5755;BME280;2902;42.130;24.732;2024-01-30T09:00:05;101796.13;;;4.18;58.78
5755;BME280;2902;42.130;24.732;2024-01-30T09:02:34;101799.59;;;4.19;59.35
5755;BME280;2902;42.130;24.732;2024-01-30T09:05:01;101799.69;;;4.17;58.21
5755;BME280;2902;42.130;24.732;2024-01-30T09:07:28;101774.75;;;3.96;59.41
5755;BME280;2902;42.130;24.732;2024-01-30T09:09:54;101794.75;;;4.25;59.56
5755;BME280;2902;42.130;24.732;2024-01-30T09:12:21;101798.09;;;4.41;58.27
5755;BME280;2902;42.130;24.732;2024-01-30T09:14:49;101789.41;;;4.27;58.49
5755;BME280;2902;42.130;24.732;2024-01-30T09:17:16;101792.13;;;4.25;58.47
5755;BME280;2902;42.130;24.732;2024-01-30T09:19:42;101787.97;;;4.35;59.12
5755;BME280;2902;42.130;24.732;2024-01-30T09:22:09;101788.81;;;4.36;57.76
5755;BME280;2902;42.130;24.732;2024-01-30T09:24:36;101791.34;;;4.37;57.04
5755;BME280;2902;42.130;24.732;2024-01-30T09:27:03;101783.09;;;4.29;57.81
5755;BME280;2902;42.130;24.732;2024-01-30T09:29:30;101776.75;;;4.19;57.67
5755;BME280;2902;42.130;24.732;2024-01-30T09:31:58;101772.03;;;3.98;58.30
5755;BME280;2902;42.130;24.732;2024-01-30T09:34:25;101766.84;;;4.10;57.91
5755;BME280;2902;42.130;24.732;2024-01-30T09:36:51;101765.69;;;4.41;57.99
5755;BME280;2902;42.130;24.732;2024-01-30T09:39:18;101763.72;;;4.18;57.53
5755;BME280;2902;42.130;24.732;2024-01-30T09:41:48;101727.88;;;4.03;58.30
5755;BME280;2902;42.130;24.732;2024-01-30T09:44:16;101751.09;;;4.23;58.46
5755;BME280;2902;42.130;24.732;2024-01-30T09:46:43;101753.53;;;4.38;57.82
5755;BME280;2902;42.130;24.732;2024-01-30T09:49:14;101743.78;;;4.40;58.23
5755;BME280;2902;42.130;24.732;2024-01-30T09:51:43;101740.41;;;4.38;58.80
5755;BME280;2902;42.130;24.732;2024-01-30T09:54:10;101741.25;;;4.39;58.40
5755;BME280;2902;42.130;24.732;2024-01-30T09:56:40;101737.66;;;4.27;58.12
5755;BME280;2902;42.130;24.732;2024-01-30T09:59:07;101735.75;;;4.29;58.57
5755;BME280;2902;42.130;24.732;2024-01-30T10:01:34;101741.25;;;4.26;58.74
5755;BME280;2902;42.130;24.732;2024-01-30T10:04:01;101740.41;;;4.38;58.53
5755;BME280;2902;42.130;24.732;2024-01-30T10:06:29;101743.34;;;4.46;57.86
5755;BME280;2902;42.130;24.732;2024-01-30T10:08:56;101736.41;;;4.45;57.55
5755;BME280;2902;42.130;24.732;2024-01-30T10:11:23;101734.63;;;4.46;58.72
5755;BME280;2902;42.130;24.732;2024-01-30T10:13:49;101741.94;;;4.67;57.25
5755;BME280;2902;42.130;24.732;2024-01-30T10:16:16;101741.63;;;4.72;56.17
5755;BME280;2902;42.130;24.732;2024-01-30T10:18:43;101743.00;;;4.77;56.27
5755;BME280;2902;42.130;24.732;2024-01-30T10:21:10;101743.13;;;4.88;56.31
5755;BME280;2902;42.130;24.732;2024-01-30T10:23:38;101736.25;;;4.98;55.84
5755;BME280;2902;42.130;24.732;2024-01-30T10:26:07;101730.75;;;5.14;55.10
5755;BME280;2902;42.130;24.732;2024-01-30T10:28:33;101736.88;;;5.27;54.63
5755;BME280;2902;42.130;24.732;2024-01-30T10:31:00;101738.97;;;5.34;53.65
5755;BME280;2902;42.130;24.732;2024-01-30T10:33:29;101737.59;;;5.41;53.28
5755;BME280;2902;42.130;24.732;2024-01-30T10:35:59;101742.19;;;5.50;52.49
5755;BME280;2902;42.130;24.732;2024-01-30T10:38:29;101738.91;;;5.59;52.33
5755;BME280;2902;42.130;24.732;2024-01-30T10:40:58;101733.41;;;5.62;51.63
5755;BME280;2902;42.130;24.732;2024-01-30T10:43:31;101735.09;;;5.63;51.43
5755;BME280;2902;42.130;24.732;2024-01-30T10:46:06;101726.88;;;5.68;50.95
5755;BME280;2902;42.130;24.732;2024-01-30T10:48:36;101726.09;;;5.78;50.50
5755;BME280;2902;42.130;24.732;2024-01-30T10:51:05;101733.88;;;5.93;50.39
5755;BME280;2902;42.130;24.732;2024-01-30T10:53:33;101731.78;;;6.09;49.01
5755;BME280;2902;42.130;24.732;2024-01-30T10:56:02;101718.66;;;6.20;48.21
5755;BME280;2902;42.130;24.732;2024-01-30T10:58:30;101722.66;;;6.36;47.38
5755;BME280;2902;42.130;24.732;2024-01-30T11:00:56;101710.59;;;6.45;48.03
5755;BME280;2902;42.130;24.732;2024-01-30T11:03:24;101713.75;;;6.61;47.85
5755;BME280;2902;42.130;24.732;2024-01-30T11:05:52;101709.66;;;6.68;47.54
5755;BME280;2902;42.130;24.732;2024-01-30T11:08:25;101709.72;;;6.90;47.04
5755;BME280;2902;42.130;24.732;2024-01-30T11:10:55;101704.44;;;7.12;46.00
5755;BME280;2902;42.130;24.732;2024-01-30T11:13:26;101698.56;;;7.08;45.30
5755;BME280;2902;42.130;24.732;2024-01-30T11:15:53;101695.56;;;7.02;45.38
5755;BME280;2902;42.130;24.732;2024-01-30T11:18:23;101694.72;;;7.12;44.60
5755;BME280;2902;42.130;24.732;2024-01-30T11:20:50;101690.72;;;7.29;44.32
5755;BME280;2902;42.130;24.732;2024-01-30T11:23:17;101688.03;;;7.62;44.64
5755;BME280;2902;42.130;24.732;2024-01-30T11:25:44;101697.81;;;7.93;43.19
5755;BME280;2902;42.130;24.732;2024-01-30T11:28:13;101682.81;;;8.14;41.89
5755;BME280;2902;42.130;24.732;2024-01-30T11:30:42;101674.72;;;8.47;41.82
5755;BME280;2902;42.130;24.732;2024-01-30T11:33:10;101672.13;;;8.77;41.54
5755;BME280;2902;42.130;24.732;2024-01-30T11:35:38;101669.03;;;9.02;41.34
5755;BME280;2902;42.130;24.732;2024-01-30T11:38:06;101671.06;;;9.19;39.79
5755;BME280;2902;42.130;24.732;2024-01-30T11:40:35;101666.88;;;9.26;40.02
5755;BME280;2902;42.130;24.732;2024-01-30T11:43:04;101658.00;;;9.36;39.49
5755;BME280;2902;42.130;24.732;2024-01-30T11:45:32;101654.06;;;9.21;39.43
5755;BME280;2902;42.130;24.732;2024-01-30T11:48:00;101649.69;;;9.11;40.69
5755;BME280;2902;42.130;24.732;2024-01-30T11:50:29;101645.25;;;9.21;40.14
5755;BME280;2902;42.130;24.732;2024-01-30T11:52:55;101644.59;;;9.38;39.95
5755;BME280;2902;42.130;24.732;2024-01-30T11:55:23;101637.09;;;9.62;38.36
5755;BME280;2902;42.130;24.732;2024-01-30T11:57:50;101616.44;;;9.75;53.29
5755;BME280;2902;42.130;24.732;2024-01-30T12:00:18;101619.53;;;10.83;56.83
5755;BME280;2902;42.130;24.732;2024-01-30T12:02:49;101628.66;;;11.07;37.24
5755;BME280;2902;42.130;24.732;2024-01-30T12:05:19;101625.41;;;10.77;36.77
5755;BME280;2902;42.130;24.732;2024-01-30T12:07:45;101614.47;;;9.96;37.38
5755;BME280;2902;42.130;24.732;2024-01-30T12:10:12;101615.06;;;9.90;37.91
5755;BME280;2902;42.130;24.732;2024-01-30T12:12:41;101607.53;;;9.76;37.80
5755;BME280;2902;42.130;24.732;2024-01-30T12:15:08;101601.34;;;9.66;38.08
5755;BME280;2902;42.130;24.732;2024-01-30T12:17:35;101598.56;;;9.58;37.86
5755;BME280;2902;42.130;24.732;2024-01-30T12:20:03;101590.47;;;9.69;37.71
5755;BME280;2902;42.130;24.732;2024-01-30T12:22:35;101590.47;;;9.59;37.49
5755;BME280;2902;42.130;24.732;2024-01-30T12:25:03;101581.50;;;9.51;37.28
5755;BME280;2902;42.130;24.732;2024-01-30T12:27:30;101581.94;;;9.56;37.24
5755;BME280;2902;42.130;24.732;2024-01-30T12:29:57;101579.44;;;9.64;37.23
5755;BME280;2902;42.130;24.732;2024-01-30T12:32:24;101573.84;;;9.67;37.53
5755;BME280;2902;42.130;24.732;2024-01-30T12:34:54;101577.75;;;9.63;37.19
5755;BME280;2902;42.130;24.732;2024-01-30T12:37:21;101572.16;;;9.66;37.06
5755;BME280;2902;42.130;24.732;2024-01-30T12:39:51;101562.94;;;9.70;36.50
5755;BME280;2902;42.130;24.732;2024-01-30T12:42:19;101573.69;;;9.59;36.76
5755;BME280;2902;42.130;24.732;2024-01-30T12:44:46;101569.78;;;9.63;36.77
5755;BME280;2902;42.130;24.732;2024-01-30T12:47:13;101569.78;;;9.44;36.61
5755;BME280;2902;42.130;24.732;2024-01-30T12:49:41;101571.31;;;9.46;36.90
5755;BME280;2902;42.130;24.732;2024-01-30T12:52:08;101570.63;;;9.54;36.35
5755;BME280;2902;42.130;24.732;2024-01-30T12:54:35;101569.22;;;9.50;36.66
5755;BME280;2902;42.130;24.732;2024-01-30T12:57:04;101562.38;;;9.38;37.03
5755;BME280;2902;42.130;24.732;2024-01-30T12:59:30;101565.03;;;9.38;37.42
5755;BME280;2902;42.130;24.732;2024-01-30T13:01:59;101557.56;;;9.03;37.71
5755;BME280;2902;42.130;24.732;2024-01-30T13:04:27;101564.78;;;8.32;39.03
5755;BME280;2902;42.130;24.732;2024-01-30T13:06:54;101564.97;;;8.30;38.90
5755;BME280;2902;42.130;24.732;2024-01-30T13:09:21;101561.78;;;8.36;39.45